sensor_id;sensor_type;location;lat;lon;timestamp;pressure;altitude;pressure_sealevel;temperature;humidity
13553;BME280;6847;48.830;9.116;2023-02-11T00:00:18;99902.34;;;1.96;45.33
13553;BME280;6847;48.830;9.116;2023-02-11T00:02:45;99917.59;;;1.96;44.97
13553;BME280;6847;48.830;9.116;2023-02-11T00:05:13;99908.53;;;1.97;44.83
13553;BME280;6847;48.830;9.116;2023-02-11T00:07:42;99909.03;;;2.00;45.36
13553;BME280;6847;48.830;9.116;2023-02-11T00:10:09;99911.53;;;2.02;45.33
13553;BME280;6847;48.830;9.116;2023-02-11T00:12:37;99910.53;;;2.03;44.91
13553;BME280;6847;48.830;9.116;2023-02-11T00:15:04;99903.34;;;2.03;44.89
13553;BME280;6847;48.830;9.116;2023-02-11T00:17:32;99907.88;;;2.03;45.34
13553;BME280;6847;48.830;9.116;2023-02-11T00:19:58;99904.38;;;2.02;44.78
13553;BME280;6847;48.830;9.116;2023-02-11T00:22:25;99904.53;;;2.01;45.27
13553;BME280;6847;48.830;9.116;2023-02-11T00:24:52;99904.53;;;2.01;45.04
13553;BME280;6847;48.830;9.116;2023-02-11T00:27:18;99896.69;;;1.99;45.34
13553;BME280;6847;48.830;9.116;2023-02-11T00:29:45;99895.19;;;1.97;45.00
13553;BME280;6847;48.830;9.116;2023-02-11T00:32:11;99893.72;;;1.94;45.52
13553;BME280;6847;48.830;9.116;2023-02-11T00:34:39;99890.53;;;1.91;45.16
13553;BME280;6847;48.830;9.116;2023-02-11T00:37:06;99889.22;;;1.86;45.72
13553;BME280;6847;48.830;9.116;2023-02-11T00:39:33;99878.91;;;1.83;45.29
13553;BME280;6847;48.830;9.116;2023-02-11T00:42:00;99880.91;;;1.81;45.29
13553;BME280;6847;48.830;9.116;2023-02-11T00:44:26;99891.25;;;1.76;45.28
13553;BME280;6847;48.830;9.116;2023-02-11T00:46:52;99900.47;;;1.74;45.46
13553;BME280;6847;48.830;9.116;2023-02-11T00:49:19;99893.94;;;1.68;45.21
13553;BME280;6847;48.830;9.116;2023-02-11T00:51:46;99887.28;;;1.64;45.28
13553;BME280;6847;48.830;9.116;2023-02-11T00:54:13;99892.97;;;1.61;45.43
13553;BME280;6847;48.830;9.116;2023-02-11T00:56:40;99888.63;;;1.60;45.70
13553;BME280;6847;48.830;9.116;2023-02-11T00:59:07;99886.28;;;1.57;46.06
13553;BME280;6847;48.830;9.116;2023-02-11T01:01:34;99891.00;;;1.55;45.99
13553;BME280;6847;48.830;9.116;2023-02-11T01:04:03;99884.00;;;1.54;45.73
13553;BME280;6847;48.830;9.116;2023-02-11T01:06:30;99878.81;;;1.53;45.63
13553;BME280;6847;48.830;9.116;2023-02-11T01:08:58;99875.97;;;1.54;45.91
13553;BME280;6847;48.830;9.116;2023-02-11T01:11:24;99866.97;;;1.55;46.08
13553;BME280;6847;48.830;9.116;2023-02-11T01:13:50;99855.28;;;1.56;45.75
13553;BME280;6847;48.830;9.116;2023-02-11T01:16:18;99860.63;;;1.56;45.92
13553;BME280;6847;48.830;9.116;2023-02-11T01:18:45;99863.94;;;1.58;45.94
13553;BME280;6847;48.830;9.116;2023-02-11T01:21:12;99859.59;;;1.57;46.27
13553;BME280;6847;48.830;9.116;2023-02-11T01:23:38;99859.13;;;1.54;46.10
13553;BME280;6847;48.830;9.116;2023-02-11T01:26:10;99856.13;;;1.48;46.07
13553;BME280;6847;48.830;9.116;2023-02-11T01:28:36;99848.28;;;1.47;46.20
13553;BME280;6847;48.830;9.116;2023-02-11T01:31:03;99840.47;;;1.45;46.25
13553;BME280;6847;48.830;9.116;2023-02-11T01:33:30;99840.47;;;1.45;46.71
13553;BME280;6847;48.830;9.116;2023-02-11T01:35:58;99835.13;;;1.45;46.44
13553;BME280;6847;48.830;9.116;2023-02-11T01:38:25;99838.81;;;1.44;46.57
13553;BME280;6847;48.830;9.116;2023-02-11T01:40:52;99841.63;;;1.43;46.14
13553;BME280;6847;48.830;9.116;2023-02-11T01:43:22;99839.13;;;1.41;46.22
13553;BME280;6847;48.830;9.116;2023-02-11T01:45:53;99841.13;;;1.39;46.44
13553;BME280;6847;48.830;9.116;2023-02-11T01:48:26;99830.00;;;1.36;46.46
13553;BME280;6847;48.830;9.116;2023-02-11T01:50:54;99833.66;;;1.35;46.72
13553;BME280;6847;48.830;9.116;2023-02-11T01:53:23;99839.31;;;1.32;46.28
13553;BME280;6847;48.830;9.116;2023-02-11T01:56:07;99841.31;;;1.30;46.41
13553;BME280;6847;48.830;9.116;2023-02-11T01:58:53;99840.84;;;1.26;46.70
13553;BME280;6847;48.830;9.116;2023-02-11T02:01:23;99840.00;;;1.26;46.60
13553;BME280;6847;48.830;9.116;2023-02-11T02:03:52;99834.69;;;1.26;46.78
13553;BME280;6847;48.830;9.116;2023-02-11T02:06:21;99830.34;;;1.25;46.56
13553;BME280;6847;48.830;9.116;2023-02-11T02:08:52;99833.69;;;1.27;46.74
13553;BME280;6847;48.830;9.116;2023-02-11T02:11:20;99831.00;;;1.27;46.66
13553;BME280;6847;48.830;9.116;2023-02-11T02:13:50;99825.66;;;1.27;46.49
13553;BME280;6847;48.830;9.116;2023-02-11T02:16:20;99831.66;;;1.29;46.63
13553;BME280;6847;48.830;9.116;2023-02-11T02:18:50;99828.66;;;1.32;46.70
13553;BME280;6847;48.830;9.116;2023-02-11T02:21:31;99821.66;;;1.31;46.71
13553;BME280;6847;48.830;9.116;2023-02-11T02:26:59;99815.97;;;1.34;47.02
13553;BME280;6847;48.830;9.116;2023-02-11T02:29:36;99813.97;;;1.36;46.83
13553;BME280;6847;48.830;9.116;2023-02-11T02:34:55;99808.78;;;1.42;46.46
13553;BME280;6847;48.830;9.116;2023-02-11T02:37:26;99820.28;;;1.43;46.70
13553;BME280;6847;48.830;9.116;2023-02-11T02:39:56;99809.28;;;1.46;46.58
13553;BME280;6847;48.830;9.116;2023-02-11T02:42:25;99807.25;;;1.48;46.72
13553;BME280;6847;48.830;9.116;2023-02-11T02:44:51;99807.25;;;1.48;46.89
13553;BME280;6847;48.830;9.116;2023-02-11T02:47:19;99787.56;;;1.49;46.94
13553;BME280;6847;48.830;9.116;2023-02-11T02:49:47;99790.22;;;1.49;46.74
13553;BME280;6847;48.830;9.116;2023-02-11T02:52:19;99781.38;;;1.48;47.39
13553;BME280;6847;48.830;9.116;2023-02-11T02:57:36;99783.53;;;1.53;46.86
13553;BME280;6847;48.830;9.116;2023-02-11T03:00:09;99788.06;;;1.53;47.47
13553;BME280;6847;48.830;9.116;2023-02-11T03:02:39;99776.03;;;1.48;47.03
13553;BME280;6847;48.830;9.116;2023-02-11T03:05:09;99778.88;;;1.47;47.11
13553;BME280;6847;48.830;9.116;2023-02-11T03:07:40;99778.88;;;1.47;46.97
13553;BME280;6847;48.830;9.116;2023-02-11T03:10:09;99774.38;;;1.47;47.30
13553;BME280;6847;48.830;9.116;2023-02-11T03:12:39;99771.91;;;1.46;47.27
13553;BME280;6847;48.830;9.116;2023-02-11T03:15:08;99768.56;;;1.44;47.65
13553;BME280;6847;48.830;9.116;2023-02-11T03:17:38;99759.91;;;1.42;47.41
13553;BME280;6847;48.830;9.116;2023-02-11T03:20:10;99763.56;;;1.41;47.41
13553;BME280;6847;48.830;9.116;2023-02-11T03:22:41;99760.72;;;1.42;47.44
13553;BME280;6847;48.830;9.116;2023-02-11T03:25:10;99757.91;;;1.44;47.18
13553;BME280;6847;48.830;9.116;2023-02-11T03:27:37;99759.91;;;1.42;47.51
13553;BME280;6847;48.830;9.116;2023-02-11T03:30:08;99758.22;;;1.41;47.56
13553;BME280;6847;48.830;9.116;2023-02-11T03:32:39;99752.91;;;1.41;47.50
13553;BME280;6847;48.830;9.116;2023-02-11T03:35:06;99759.06;;;1.41;47.62
13553;BME280;6847;48.830;9.116;2023-02-11T03:37:36;99767.91;;;1.42;47.65
13553;BME280;6847;48.830;9.116;2023-02-11T03:40:08;99758.22;;;1.41;47.47
13553;BME280;6847;48.830;9.116;2023-02-11T03:42:37;99763.56;;;1.41;47.69
13553;BME280;6847;48.830;9.116;2023-02-11T03:45:07;99763.56;;;1.41;47.45
13553;BME280;6847;48.830;9.116;2023-02-11T03:47:35;99763.56;;;1.41;47.39
13553;BME280;6847;48.830;9.116;2023-02-11T03:50:05;99765.25;;;1.42;47.52
13553;BME280;6847;48.830;9.116;2023-02-11T03:52:33;99759.56;;;1.45;47.56
13553;BME280;6847;48.830;9.116;2023-02-11T03:55:00;99753.84;;;1.48;47.86
13553;BME280;6847;48.830;9.116;2023-02-11T03:57:31;99757.53;;;1.55;47.69
13553;BME280;6847;48.830;9.116;2023-02-11T03:59:59;99757.13;;;1.66;47.72
13553;BME280;6847;48.830;9.116;2023-02-11T04:02:26;99764.09;;;1.75;47.70
13553;BME280;6847;48.830;9.116;2023-02-11T04:04:53;99771.91;;;1.85;47.79
13553;BME280;6847;48.830;9.116;2023-02-11T04:07:21;99657.25;;;1.22;47.58
13553;BME280;6847;48.830;9.116;2023-02-11T04:09:50;99766.94;;;2.05;47.74
13553;BME280;6847;48.830;9.116;2023-02-11T04:12:17;99772.88;;;2.15;47.70
13553;BME280;6847;48.830;9.116;2023-02-11T04:14:46;99782.50;;;2.24;47.51
13553;BME280;6847;48.830;9.116;2023-02-11T04:17:13;99784.13;;;2.33;47.38
13553;BME280;6847;48.830;9.116;2023-02-11T04:19:39;99793.06;;;2.40;47.65
13553;BME280;6847;48.830;9.116;2023-02-11T04:22:06;99785.34;;;2.45;47.72
13553;BME280;6847;48.830;9.116;2023-02-11T04:24:33;99782.97;;;2.50;47.58
13553;BME280;6847;48.830;9.116;2023-02-11T04:26:59;99781.78;;;2.53;47.78
13553;BME280;6847;48.830;9.116;2023-02-11T04:29:26;99791.66;;;2.52;47.43
13553;BME280;6847;48.830;9.116;2023-02-11T04:31:56;99791.28;;;2.55;47.37
13553;BME280;6847;48.830;9.116;2023-02-11T04:34:23;99794.44;;;2.59;47.94
13553;BME280;6847;48.830;9.116;2023-02-11T04:36:50;99786.50;;;2.66;47.95
13553;BME280;6847;48.830;9.116;2023-02-11T04:39:19;99787.81;;;2.70;47.93
13553;BME280;6847;48.830;9.116;2023-02-11T04:41:49;99781.75;;;2.76;48.01
13553;BME280;6847;48.830;9.116;2023-02-11T04:44:16;99788.06;;;2.83;47.63
13553;BME280;6847;48.830;9.116;2023-02-11T04:46:43;99779.28;;;2.89;47.94
13553;BME280;6847;48.830;9.116;2023-02-11T04:49:11;99768.06;;;2.93;47.71
13553;BME280;6847;48.830;9.116;2023-02-11T04:51:38;99766.50;;;2.99;47.61
13553;BME280;6847;48.830;9.116;2023-02-11T04:54:06;99767.59;;;3.05;47.57
13553;BME280;6847;48.830;9.116;2023-02-11T04:56:33;99767.06;;;3.09;47.38
13553;BME280;6847;48.830;9.116;2023-02-11T04:59:01;99771.03;;;3.13;47.81
13553;BME280;6847;48.830;9.116;2023-02-11T05:01:27;99770.47;;;3.18;47.39
13553;BME280;6847;48.830;9.116;2023-02-11T05:03:54;99767.25;;;3.22;47.63
13553;BME280;6847;48.830;9.116;2023-02-11T05:06:23;99773.88;;;3.26;47.52
13553;BME280;6847;48.830;9.116;2023-02-11T05:08:50;99773.53;;;3.29;47.25
13553;BME280;6847;48.830;9.116;2023-02-11T05:11:18;99764.94;;;3.34;47.59
13553;BME280;6847;48.830;9.116;2023-02-11T05:13:44;99739.16;;;3.33;47.50
13553;BME280;6847;48.830;9.116;2023-02-11T05:16:11;99731.13;;;3.33;47.33
13553;BME280;6847;48.830;9.116;2023-02-11T05:18:38;99728.28;;;3.34;47.65
13553;BME280;6847;48.830;9.116;2023-02-11T05:21:06;99719.06;;;3.37;47.40
13553;BME280;6847;48.830;9.116;2023-02-11T05:23:35;99716.84;;;3.41;47.57
13553;BME280;6847;48.830;9.116;2023-02-11T05:26:02;99715.25;;;3.46;47.61
13553;BME280;6847;48.830;9.116;2023-02-11T05:28:28;99710.38;;;3.50;48.15
13553;BME280;6847;48.830;9.116;2023-02-11T05:30:57;99711.63;;;3.54;47.40
13553;BME280;6847;48.830;9.116;2023-02-11T05:33:24;99702.59;;;3.55;48.12
13553;BME280;6847;48.830;9.116;2023-02-11T05:35:51;99698.53;;;3.59;47.96
13553;BME280;6847;48.830;9.116;2023-02-11T05:38:17;99692.16;;;3.60;48.27
13553;BME280;6847;48.830;9.116;2023-02-11T05:40:46;99701.84;;;3.61;47.94
13553;BME280;6847;48.830;9.116;2023-02-11T05:43:13;99703.88;;;3.59;47.85
13553;BME280;6847;48.830;9.116;2023-02-11T05:45:40;99707.56;;;3.58;47.48
13553;BME280;6847;48.830;9.116;2023-02-11T05:48:07;99711.28;;;3.57;47.40
13553;BME280;6847;48.830;9.116;2023-02-11T05:50:33;99705.25;;;3.55;48.23
13553;BME280;6847;48.830;9.116;2023-02-11T05:52:59;99711.28;;;3.57;47.83
13553;BME280;6847;48.830;9.116;2023-02-11T05:55:26;99707.56;;;3.58;47.74
13553;BME280;6847;48.830;9.116;2023-02-11T05:57:54;99714.22;;;3.62;48.40
13553;BME280;6847;48.830;9.116;2023-02-11T06:00:21;99714.66;;;3.65;47.91
13553;BME280;6847;48.830;9.116;2023-02-11T06:02:48;99720.84;;;3.66;48.57
13553;BME280;6847;48.830;9.116;2023-02-11T06:05:15;99717.16;;;3.67;47.82
13553;BME280;6847;48.830;9.116;2023-02-11T06:07:42;99731.63;;;3.72;48.56
13553;BME280;6847;48.830;9.116;2023-02-11T06:10:08;99728.78;;;3.74;48.43
13553;BME280;6847;48.830;9.116;2023-02-11T06:12:35;99737.09;;;3.79;48.21
13553;BME280;6847;48.830;9.116;2023-02-11T06:15:05;99742.88;;;3.83;47.70
13553;BME280;6847;48.830;9.116;2023-02-11T06:17:32;99745.00;;;3.87;48.39
13553;BME280;6847;48.830;9.116;2023-02-11T06:20:00;99751.66;;;3.91;48.51
13553;BME280;6847;48.830;9.116;2023-02-11T06:22:27;99739.53;;;3.95;47.70
13553;BME280;6847;48.830;9.116;2023-02-11T06:24:53;99746.00;;;4.01;47.88
13553;BME280;6847;48.830;9.116;2023-02-11T06:27:22;99744.78;;;4.03;48.37
13553;BME280;6847;48.830;9.116;2023-02-11T06:29:49;99742.38;;;4.08;47.76
13553;BME280;6847;48.830;9.116;2023-02-11T06:32:18;99734.56;;;4.14;47.73
13553;BME280;6847;48.830;9.116;2023-02-11T06:34:45;99723.47;;;4.17;48.18
13553;BME280;6847;48.830;9.116;2023-02-11T06:37:13;99727.63;;;4.19;48.37
13553;BME280;6847;48.830;9.116;2023-02-11T06:39:42;99731.75;;;4.22;48.38
13553;BME280;6847;48.830;9.116;2023-02-11T06:42:10;99737.94;;;4.22;48.71
13553;BME280;6847;48.830;9.116;2023-02-11T06:44:37;99735.09;;;4.24;48.60
13553;BME280;6847;48.830;9.116;2023-02-11T06:47:04;99737.13;;;4.22;48.71
13553;BME280;6847;48.830;9.116;2023-02-11T06:49:32;99747.84;;;4.22;48.79
13553;BME280;6847;48.830;9.116;2023-02-11T06:51:59;99749.13;;;4.26;48.68
13553;BME280;6847;48.830;9.116;2023-02-11T06:54:25;99743.41;;;4.29;48.79
13553;BME280;6847;48.830;9.116;2023-02-11T06:56:52;99748.34;;;4.32;47.94
13553;BME280;6847;48.830;9.116;2023-02-11T06:59:20;99748.81;;;4.35;48.70
13553;BME280;6847;48.830;9.116;2023-02-11T07:01:48;99759.59;;;4.42;48.74
13553;BME280;6847;48.830;9.116;2023-02-11T07:04:15;99761.72;;;4.46;48.60
13553;BME280;6847;48.830;9.116;2023-02-11T07:06:44;99749.78;;;4.49;47.86
13553;BME280;6847;48.830;9.116;2023-02-11T07:09:11;99742.75;;;4.48;48.75
13553;BME280;6847;48.830;9.116;2023-02-11T07:11:38;99744.41;;;4.49;48.51
13553;BME280;6847;48.830;9.116;2023-02-11T07:14:05;99744.84;;;4.53;48.52
13553;BME280;6847;48.830;9.116;2023-02-11T07:16:32;99739.94;;;4.56;47.99
13553;BME280;6847;48.830;9.116;2023-02-11T07:18:59;99754.00;;;4.58;48.00
13553;BME280;6847;48.830;9.116;2023-02-11T07:21:25;99742.84;;;4.61;47.93
13553;BME280;6847;48.830;9.116;2023-02-11T07:23:55;99738.38;;;4.68;48.04
13553;BME280;6847;48.830;9.116;2023-02-11T07:26:22;99741.31;;;4.73;48.73
13553;BME280;6847;48.830;9.116;2023-02-11T07:28:50;99729.81;;;4.79;47.93
13553;BME280;6847;48.830;9.116;2023-02-11T07:31:17;99750.50;;;4.86;47.95
13553;BME280;6847;48.830;9.116;2023-02-11T07:33:44;99763.75;;;4.94;47.90
13553;BME280;6847;48.830;9.116;2023-02-11T07:36:11;99762.56;;;4.96;48.02
13553;BME280;6847;48.830;9.116;2023-02-11T07:38:38;99761.13;;;5.00;47.84
13553;BME280;6847;48.830;9.116;2023-02-11T07:41:07;99755.19;;;5.05;48.20
13553;BME280;6847;48.830;9.116;2023-02-11T07:43:34;99769.09;;;5.15;48.33
13553;BME280;6847;48.830;9.116;2023-02-11T07:46:03;99768.53;;;5.26;47.80
13553;BME280;6847;48.830;9.116;2023-02-11T07:48:31;99764.06;;;5.40;47.64
13553;BME280;6847;48.830;9.116;2023-02-11T07:51:03;99749.84;;;5.46;47.77
13553;BME280;6847;48.830;9.116;2023-02-11T07:53:30;99749.25;;;5.50;48.31
13553;BME280;6847;48.830;9.116;2023-02-11T07:55:57;99751.09;;;5.50;47.79
13553;BME280;6847;48.830;9.116;2023-02-11T07:58:25;99745.53;;;5.51;48.15
13553;BME280;6847;48.830;9.116;2023-02-11T08:00:51;99745.13;;;5.54;48.39
13553;BME280;6847;48.830;9.116;2023-02-11T08:03:17;99745.59;;;5.65;48.37
13553;BME280;6847;48.830;9.116;2023-02-11T08:05:44;99736.97;;;5.76;47.88
13553;BME280;6847;48.830;9.116;2023-02-11T08:08:10;99732.88;;;5.86;48.46
13553;BME280;6847;48.830;9.116;2023-02-11T08:10:40;99728.81;;;5.97;48.34
13553;BME280;6847;48.830;9.116;2023-02-11T08:13:06;99728.38;;;6.00;48.10
13553;BME280;6847;48.830;9.116;2023-02-11T08:15:34;99736.88;;;6.10;47.85
13553;BME280;6847;48.830;9.116;2023-02-11T08:18:00;99730.91;;;6.21;47.94
13553;BME280;6847;48.830;9.116;2023-02-11T08:20:26;99735.69;;;6.32;47.83
13553;BME280;6847;48.830;9.116;2023-02-11T08:22:53;99742.53;;;6.42;47.58
13553;BME280;6847;48.830;9.116;2023-02-11T08:25:19;99746.69;;;6.51;48.17
13553;BME280;6847;48.830;9.116;2023-02-11T08:27:46;99750.81;;;6.66;47.57
13553;BME280;6847;48.830;9.116;2023-02-11T08:30:13;99761.00;;;6.84;47.84
13553;BME280;6847;48.830;9.116;2023-02-11T08:32:40;99754.16;;;7.15;47.37
13553;BME280;6847;48.830;9.116;2023-02-11T08:35:07;99745.53;;;7.64;46.92
13553;BME280;6847;48.830;9.116;2023-02-11T08:37:36;99743.13;;;7.87;46.58
13553;BME280;6847;48.830;9.116;2023-02-11T08:40:02;99753.88;;;8.00;46.71
13553;BME280;6847;48.830;9.116;2023-02-11T08:42:29;99741.69;;;8.23;46.85
13553;BME280;6847;48.830;9.116;2023-02-11T08:44:55;99742.63;;;8.73;46.38
13553;BME280;6847;48.830;9.116;2023-02-11T08:47:23;99744.13;;;9.73;45.26
13553;BME280;6847;48.830;9.116;2023-02-11T08:49:51;99745.97;;;10.81;44.46
13553;BME280;6847;48.830;9.116;2023-02-11T08:52:17;99737.75;;;12.26;43.05
13553;BME280;6847;48.830;9.116;2023-02-11T09:56:16;99762.38;;;23.55;37.84
13553;BME280;6847;48.830;9.116;2023-02-11T09:59:23;99741.91;;;23.11;38.18
13553;BME280;6847;48.830;9.116;2023-02-11T10:02:35;99729.72;;;21.91;39.19
13553;BME280;6847;48.830;9.116;2023-02-11T10:06:07;99772.09;;;21.67;39.23
13553;BME280;6847;48.830;9.116;2023-02-11T10:12:55;99772.22;;;22.17;37.48
13553;BME280;6847;48.830;9.116;2023-02-11T10:16:19;99770.28;;;22.18;37.20
13553;BME280;6847;48.830;9.116;2023-02-11T10:19:52;99754.41;;;22.50;36.36
13553;BME280;6847;48.830;9.116;2023-02-11T10:23:09;99682.94;;;22.13;36.50
13553;BME280;6847;48.830;9.116;2023-02-11T10:26:20;99756.25;;;22.91;35.87
13553;BME280;6847;48.830;9.116;2023-02-11T10:29:37;99582.50;;;21.37;36.56
13553;BME280;6847;48.830;9.116;2023-02-11T10:33:02;99760.94;;;21.59;37.02
13553;BME280;6847;48.830;9.116;2023-02-11T10:36:11;99749.34;;;20.78;37.98
13553;BME280;6847;48.830;9.116;2023-02-11T10:39:21;99777.06;;;20.25;38.39
13553;BME280;6847;48.830;9.116;2023-02-11T10:42:29;99649.00;;;19.29;37.90
13553;BME280;6847;48.830;9.116;2023-02-11T10:45:42;99659.66;;;19.07;37.99
13553;BME280;6847;48.830;9.116;2023-02-11T10:48:52;99762.97;;;19.61;38.01
13553;BME280;6847;48.830;9.116;2023-02-11T10:52:20;99749.94;;;19.95;37.53
13553;BME280;6847;48.830;9.116;2023-02-11T10:55:29;99758.00;;;20.53;36.58
13553;BME280;6847;48.830;9.116;2023-02-11T10:58:43;99714.69;;;21.10;35.57
13553;BME280;6847;48.830;9.116;2023-02-11T11:01:56;99689.69;;;21.79;34.97
13553;BME280;6847;48.830;9.116;2023-02-11T11:05:14;99703.47;;;22.07;34.91
13553;BME280;6847;48.830;9.116;2023-02-11T11:08:37;99723.69;;;22.16;34.76
13553;BME280;6847;48.830;9.116;2023-02-11T11:11:50;99678.25;;;21.72;35.03
13553;BME280;6847;48.830;9.116;2023-02-11T11:14:59;99654.56;;;21.71;34.90
13553;BME280;6847;48.830;9.116;2023-02-11T11:18:13;99476.09;;;20.45;34.79
13553;BME280;6847;48.830;9.116;2023-02-11T11:21:23;99628.63;;;21.45;34.80
13553;BME280;6847;48.830;9.116;2023-02-11T11:24:38;99711.47;;;22.44;34.50
13553;BME280;6847;48.830;9.116;2023-02-11T11:27:49;99708.53;;;22.99;34.33
13553;BME280;6847;48.830;9.116;2023-02-11T11:30:59;99715.75;;;23.40;33.94
13553;BME280;6847;48.830;9.116;2023-02-11T11:34:19;99689.41;;;23.42;33.73
13553;BME280;6847;48.830;9.116;2023-02-11T11:37:31;99718.91;;;23.86;33.83
13553;BME280;6847;48.830;9.116;2023-02-11T11:40:40;99720.41;;;24.10;33.71
13553;BME280;6847;48.830;9.116;2023-02-11T11:43:55;99700.09;;;24.06;33.88
13553;BME280;6847;48.830;9.116;2023-02-11T11:47:30;99726.56;;;24.46;33.42
13553;BME280;6847;48.830;9.116;2023-02-11T11:51:01;99713.03;;;24.70;33.49
13553;BME280;6847;48.830;9.116;2023-02-11T11:58:15;99677.88;;;23.40;34.16
13553;BME280;6847;48.830;9.116;2023-02-11T12:01:32;99718.22;;;22.52;35.31
13553;BME280;6847;48.830;9.116;2023-02-11T12:04:57;99682.41;;;20.96;35.88
13553;BME280;6847;48.830;9.116;2023-02-11T12:08:15;99687.81;;;20.37;36.40
13553;BME280;6847;48.830;9.116;2023-02-11T12:11:35;99632.97;;;19.84;35.99
13553;BME280;6847;48.830;9.116;2023-02-11T12:14:50;99632.25;;;19.97;35.58
13553;BME280;6847;48.830;9.116;2023-02-11T12:18:23;99655.69;;;20.08;35.14
13553;BME280;6847;48.830;9.116;2023-02-11T12:21:12;99627.38;;;19.89;35.15
13553;BME280;6847;48.830;9.116;2023-02-11T12:24:02;99690.16;;;20.24;34.71
13553;BME280;6847;48.830;9.116;2023-02-11T12:26:40;99708.56;;;20.24;34.76
13553;BME280;6847;48.830;9.116;2023-02-11T12:29:21;99706.13;;;19.80;34.99
13553;BME280;6847;48.830;9.116;2023-02-11T12:32:03;99721.47;;;19.33;35.41
13553;BME280;6847;48.830;9.116;2023-02-11T12:34:54;99636.50;;;18.60;35.80
13553;BME280;6847;48.830;9.116;2023-02-11T12:37:35;99717.88;;;19.04;35.50
13553;BME280;6847;48.830;9.116;2023-02-11T12:40:14;99708.91;;;19.27;34.98
13553;BME280;6847;48.830;9.116;2023-02-11T12:42:54;99703.16;;;19.52;35.02
13553;BME280;6847;48.830;9.116;2023-02-11T12:45:53;99712.03;;;19.92;34.86
13553;BME280;6847;48.830;9.116;2023-02-11T12:48:35;99687.41;;;19.82;34.74
13553;BME280;6847;48.830;9.116;2023-02-11T12:51:10;99687.44;;;19.58;34.97
13553;BME280;6847;48.830;9.116;2023-02-11T12:53:50;99713.00;;;19.58;35.09
13553;BME280;6847;48.830;9.116;2023-02-11T12:56:28;99658.97;;;19.20;35.23
13553;BME280;6847;48.830;9.116;2023-02-11T12:58:59;99708.59;;;19.57;34.72
13553;BME280;6847;48.830;9.116;2023-02-11T13:01:33;99704.19;;;19.80;34.95
13553;BME280;6847;48.830;9.116;2023-02-11T13:04:06;99694.19;;;20.08;34.79
13553;BME280;6847;48.830;9.116;2023-02-11T13:06:36;99685.34;;;20.54;34.42
13553;BME280;6847;48.830;9.116;2023-02-11T13:09:11;99682.41;;;20.96;34.08
13553;BME280;6847;48.830;9.116;2023-02-11T13:11:50;99682.13;;;21.30;33.96
13553;BME280;6847;48.830;9.116;2023-02-11T13:14:23;99661.28;;;21.38;33.92
13553;BME280;6847;48.830;9.116;2023-02-11T13:16:53;99638.66;;;21.41;33.87
13553;BME280;6847;48.830;9.116;2023-02-11T13:19:26;99671.09;;;21.85;33.81
13553;BME280;6847;48.830;9.116;2023-02-11T13:22:05;99673.13;;;22.07;33.85
13553;BME280;6847;48.830;9.116;2023-02-11T13:24:42;99625.84;;;22.00;33.87
13553;BME280;6847;48.830;9.116;2023-02-11T13:27:28;99674.75;;;22.22;34.05
13553;BME280;6847;48.830;9.116;2023-02-11T13:30:23;99674.91;;;22.03;34.18
13553;BME280;6847;48.830;9.116;2023-02-11T13:33:04;99663.75;;;21.67;34.66
13553;BME280;6847;48.830;9.116;2023-02-11T13:35:34;99661.19;;;21.57;34.51
13553;BME280;6847;48.830;9.116;2023-02-11T13:38:16;99664.56;;;21.67;34.48
13553;BME280;6847;48.830;9.116;2023-02-11T13:40:57;99662.91;;;21.94;34.23
13553;BME280;6847;48.830;9.116;2023-02-11T13:43:30;99654.72;;;22.16;34.10
13553;BME280;6847;48.830;9.116;2023-02-11T13:46:02;99651.13;;;22.15;33.97
13553;BME280;6847;48.830;9.116;2023-02-11T13:48:31;99676.19;;;22.19;33.95
13553;BME280;6847;48.830;9.116;2023-02-11T13:51:03;99666.16;;;21.96;34.29
13553;BME280;6847;48.830;9.116;2023-02-11T13:53:43;99664.97;;;21.74;34.34
13553;BME280;6847;48.830;9.116;2023-02-11T13:56:26;99651.91;;;21.66;34.42
13553;BME280;6847;48.830;9.116;2023-02-11T13:58:59;99656.50;;;21.71;34.12
13553;BME280;6847;48.830;9.116;2023-02-11T14:01:43;99666.31;;;21.63;34.47
13553;BME280;6847;48.830;9.116;2023-02-11T14:05:01;99659.25;;;21.30;34.54
13553;BME280;6847;48.830;9.116;2023-02-11T14:08:26;99629.78;;;20.84;34.46
13553;BME280;6847;48.830;9.116;2023-02-11T14:11:45;99660.94;;;20.66;34.60
13553;BME280;6847;48.830;9.116;2023-02-11T14:14:25;99650.28;;;20.59;34.68
13553;BME280;6847;48.830;9.116;2023-02-11T14:17:26;99654.63;;;20.79;34.45
13553;BME280;6847;48.830;9.116;2023-02-11T14:19:55;99635.69;;;20.91;34.34
13553;BME280;6847;48.830;9.116;2023-02-11T14:22:27;99625.47;;;20.78;34.50
13553;BME280;6847;48.830;9.116;2023-02-11T14:24:57;99649.38;;;20.96;34.45
13553;BME280;6847;48.830;9.116;2023-02-11T14:27:34;99637.50;;;20.82;34.61
13553;BME280;6847;48.830;9.116;2023-02-11T14:30:24;99634.84;;;20.77;34.61
13553;BME280;6847;48.830;9.116;2023-02-11T14:35:55;99659.34;;;20.60;34.74
13553;BME280;6847;48.830;9.116;2023-02-11T14:38:38;99656.53;;;20.65;34.54
13553;BME280;6847;48.830;9.116;2023-02-11T14:41:15;99544.09;;;20.07;34.61
13553;BME280;6847;48.830;9.116;2023-02-11T14:43:49;99657.91;;;20.81;34.73
13553;BME280;6847;48.830;9.116;2023-02-11T14:46:25;99645.66;;;20.87;34.49
13553;BME280;6847;48.830;9.116;2023-02-11T14:48:58;99673.22;;;21.20;34.23
13553;BME280;6847;48.830;9.116;2023-02-11T14:51:27;99632.25;;;20.99;34.19
13553;BME280;6847;48.830;9.116;2023-02-11T14:54:01;99677.75;;;21.11;34.31
13553;BME280;6847;48.830;9.116;2023-02-11T14:56:34;99454.25;;;19.51;34.23
13553;BME280;6847;48.830;9.116;2023-02-11T14:59:01;99593.75;;;20.35;34.44
13553;BME280;6847;48.830;9.116;2023-02-11T15:01:34;99652.56;;;20.71;34.28
13553;BME280;6847;48.830;9.116;2023-02-11T15:04:24;99581.47;;;20.27;34.35
13553;BME280;6847;48.830;9.116;2023-02-11T15:06:54;99477.97;;;19.42;34.35
13553;BME280;6847;48.830;9.116;2023-02-11T15:09:31;99553.38;;;19.55;34.66
13553;BME280;6847;48.830;9.116;2023-02-11T15:11:58;99426.06;;;18.32;34.63
13553;BME280;6847;48.830;9.116;2023-02-11T15:14:27;99686.25;;;19.64;34.92
13553;BME280;6847;48.830;9.116;2023-02-11T15:17:01;99676.47;;;19.29;34.96
13553;BME280;6847;48.830;9.116;2023-02-11T15:19:30;99461.81;;;17.54;35.06
13553;BME280;6847;48.830;9.116;2023-02-11T15:22:01;99520.72;;;17.51;35.21
13553;BME280;6847;48.830;9.116;2023-02-11T15:24:38;99651.19;;;17.91;35.08
13553;BME280;6847;48.830;9.116;2023-02-11T15:27:11;99683.63;;;17.64;35.20